createdAt,value
2022-11-16T00:01:38.768Z,11.8
2022-11-16T00:03:42.250Z,11.8
2022-11-16T00:05:45.776Z,11.6
2022-11-16T00:07:49.308Z,11.3
2022-11-16T00:09:52.865Z,11.3
2022-11-16T00:11:56.431Z,11.9
2022-11-16T00:14:03.060Z,11
2022-11-16T00:16:06.647Z,11.2
2022-11-16T00:18:10.155Z,11.8
2022-11-16T00:20:17.746Z,11.2
2022-11-16T00:22:17.230Z,10.9
2022-11-16T00:24:20.817Z,11.2
2022-11-16T00:26:24.354Z,11.4
2022-11-16T00:28:31.239Z,10.8
2022-11-16T00:30:34.523Z,11.5
2022-11-16T00:32:38.056Z,10.9
2022-11-16T00:33:41.411Z,10.9
2022-11-16T00:35:44.947Z,10.9
2022-11-16T00:37:48.476Z,11.8
2022-11-16T00:39:52.030Z,11.4
2022-11-16T00:41:58.668Z,11.1
2022-11-16T00:44:02.228Z,11.5
2022-11-16T00:46:05.750Z,11.2
2022-11-16T00:48:09.302Z,11.6
2022-11-16T00:50:12.863Z,10.9
2022-11-16T00:52:16.395Z,11.1
2022-11-16T00:54:19.964Z,11.5
2022-11-16T00:56:26.573Z,10.9
2022-11-16T00:58:30.289Z,10.8
2022-11-16T01:00:33.643Z,11.7
2022-11-16T01:02:37.189Z,11.5
2022-11-16T01:04:40.727Z,11.4
2022-11-16T01:08:47.855Z,11.6
2022-11-16T01:10:54.657Z,11.5
2022-11-16T01:12:58.035Z,11.6
2022-11-16T01:15:01.572Z,11.6
2022-11-16T01:17:05.097Z,11.3
2022-11-16T01:19:08.635Z,11.5
2022-11-16T01:21:12.180Z,11.9
2022-11-16T01:23:15.717Z,11.6
2022-11-16T01:25:22.367Z,11.9
2022-11-16T01:27:25.896Z,11.1
2022-11-16T01:29:29.427Z,11.3
2022-11-16T01:30:32.754Z,11.4
2022-11-16T01:32:36.314Z,11.5
2022-11-16T01:34:39.832Z,11.1
2022-11-16T01:36:43.405Z,11.4
2022-11-16T01:38:50.024Z,11.8
2022-11-16T01:40:53.554Z,11.5
2022-11-16T01:42:57.116Z,11.5
2022-11-16T01:45:00.634Z,11.2
2022-11-16T01:47:04.195Z,11.1
2022-11-16T01:49:07.731Z,11.2
2022-11-16T01:51:11.265Z,11.9
2022-11-16T01:53:17.944Z,10.9
2022-11-16T01:55:21.405Z,11
2022-11-16T01:57:24.988Z,11.6
2022-11-16T02:01:32.122Z,11.4
2022-11-16T02:03:35.591Z,10.9
2022-11-16T02:05:39.152Z,11.9
2022-11-16T02:07:45.745Z,11.3
2022-11-16T02:09:49.310Z,11.3
2022-11-16T02:11:52.831Z,11.9
2022-11-16T02:13:56.369Z,11.2
2022-11-16T02:15:59.914Z,11.4
2022-11-16T02:18:03.465Z,11.3
2022-11-16T02:20:07.001Z,11.3
2022-11-16T02:22:13.650Z,11.8
2022-11-16T02:24:17.191Z,10.9
2022-11-16T02:26:20.745Z,11
2022-11-16T02:28:45.035Z,10.9
2022-11-16T02:30:48.707Z,11.3
2022-11-16T02:32:52.145Z,11.5
2022-11-16T02:34:58.738Z,10.9
2022-11-16T02:37:02.279Z,10.9
2022-11-16T02:39:05.822Z,11.4
2022-11-16T02:43:12.930Z,11.4
2022-11-16T02:45:16.494Z,11.1
2022-11-16T02:47:20.013Z,11.5
2022-11-16T02:49:26.634Z,11.2
2022-11-16T02:51:30.171Z,11.7
2022-11-16T02:53:33.744Z,10.8
2022-11-16T02:55:37.288Z,11.6
2022-11-16T02:57:40.836Z,11.5
2022-11-16T02:59:44.397Z,10.9
2022-11-16T03:01:47.935Z,11.3
2022-11-16T03:03:54.546Z,11.1
2022-11-16T03:05:58.102Z,10.8
2022-11-16T03:08:01.671Z,11.7
2022-11-16T03:10:05.192Z,11.1
2022-11-16T03:12:08.730Z,11.3
2022-11-16T03:14:12.314Z,11.4
2022-11-16T03:16:15.866Z,11.6
2022-11-16T03:18:22.452Z,11.3
2022-11-16T03:20:26.011Z,10.9
2022-11-16T03:22:29.566Z,11.6
2022-11-16T03:25:36.419Z,11
2022-11-16T03:27:39.972Z,11.2
2022-11-16T03:29:43.522Z,11.6
2022-11-16T03:33:53.700Z,11.2
2022-11-16T03:35:57.235Z,11.7
2022-11-16T03:38:00.790Z,11.5
2022-11-16T03:40:04.349Z,11.1
2022-11-16T03:42:07.875Z,11.2
2022-11-16T03:44:11.417Z,11
2022-11-16T03:46:18.050Z,11.4
2022-11-16T03:48:21.609Z,11.3
2022-11-16T03:50:25.131Z,11.3
2022-11-16T03:52:28.678Z,10.8
2022-11-16T03:54:32.266Z,10.7
2022-11-16T03:56:35.788Z,11.1
2022-11-16T03:58:39.331Z,11.6
2022-11-16T04:02:49.518Z,10.7
2022-11-16T04:04:53.056Z,11.1
2022-11-16T04:11:03.716Z,10.9
2022-11-16T04:13:07.264Z,11.6
2022-11-16T04:15:13.885Z,11.6
2022-11-16T04:19:20.963Z,11.3
2022-11-16T04:20:24.280Z,11
2022-11-16T04:22:27.835Z,11.4
2022-11-16T04:24:31.366Z,11.3
2022-11-16T04:26:34.932Z,11.2
2022-11-16T04:28:41.560Z,11.1
2022-11-16T04:30:45.164Z,11.3
2022-11-16T04:32:48.613Z,11.4
2022-11-16T04:34:52.218Z,10.8
2022-11-16T04:36:55.777Z,10.7
2022-11-16T04:38:59.321Z,10.7
2022-11-16T04:41:02.881Z,11.2
2022-11-16T04:43:09.564Z,11.1
2022-11-16T04:45:13.072Z,10.8
2022-11-16T04:47:16.602Z,11.1
2022-11-16T04:49:20.131Z,10.7
2022-11-16T04:51:23.736Z,11.1
2022-11-16T04:53:27.292Z,11.1
2022-11-16T04:55:30.845Z,11
2022-11-16T04:57:37.465Z,11
2022-11-16T04:59:42.562Z,11.5
2022-11-16T05:01:46.137Z,11
2022-11-16T05:03:49.624Z,10.9
2022-11-16T05:05:53.156Z,11.1
2022-11-16T05:07:56.714Z,11.3
2022-11-16T05:10:00.334Z,10.8
2022-11-16T05:17:17.349Z,11.3
2022-11-16T05:19:20.896Z,10.9
2022-11-16T05:21:24.399Z,10.5
2022-11-16T05:23:27.968Z,11.3
2022-11-16T05:25:36.915Z,11.1
2022-11-16T05:27:38.116Z,10.4
2022-11-16T05:29:41.637Z,11
2022-11-16T05:31:45.213Z,10.7
2022-11-16T05:33:48.752Z,10.7
2022-11-16T05:35:52.320Z,11
2022-11-16T05:37:55.885Z,11.1
2022-11-16T05:40:02.524Z,10.5
2022-11-16T05:42:06.029Z,10.4
2022-11-16T05:44:09.591Z,10.6
2022-11-16T05:46:13.122Z,10.4
2022-11-16T05:48:16.892Z,11
2022-11-16T06:00:43.488Z,10.4
2022-11-16T06:02:44.670Z,10.3
2022-11-16T06:04:48.180Z,10.1
2022-11-16T06:08:58.409Z,10.8
2022-11-16T06:15:29.971Z,10.3
2022-11-16T06:17:33.563Z,10.3
2022-11-16T06:21:43.759Z,10.7
2022-11-16T06:23:47.275Z,10.1
2022-11-16T06:25:50.869Z,10
2022-11-16T06:27:54.420Z,10.6
2022-11-16T06:29:57.987Z,10
2022-11-16T06:32:01.548Z,10.4
2022-11-16T06:34:05.101Z,10.6
2022-11-16T06:36:11.744Z,9.8
2022-11-16T06:38:15.313Z,10.5
2022-11-16T06:40:18.889Z,9.9
2022-11-16T06:42:22.431Z,9.9
2022-11-16T06:46:29.568Z,10.3
2022-11-16T06:48:33.563Z,9.7
2022-11-16T06:51:11.870Z,10.3
2022-11-16T06:59:06.382Z,9.7
2022-11-16T07:01:02.974Z,10.1
2022-11-16T07:03:07.669Z,10
2022-11-16T07:05:13.366Z,10
2022-11-16T07:08:03.008Z,10
2022-11-16T07:12:25.771Z,9.9
2022-11-16T07:14:25.370Z,9.9
2022-11-16T07:16:28.947Z,9.9
2022-11-16T07:18:36.030Z,9.8
2022-11-16T07:20:39.127Z,9.8
2022-11-16T07:22:42.697Z,9.8
2022-11-16T07:24:46.299Z,9.8
2022-11-16T07:26:49.854Z,9.7
2022-11-16T07:30:57.021Z,9.7
2022-11-16T07:35:07.264Z,9.7
2022-11-16T07:37:10.848Z,9.7
2022-11-16T07:39:14.418Z,9.7
2022-11-16T07:43:21.568Z,9.7
2022-11-16T07:45:25.143Z,9.8
2022-11-16T07:49:35.360Z,9.9
2022-11-16T07:53:42.541Z,10
2022-11-16T08:04:03.505Z,10.1
2022-11-16T08:07:10.490Z,10.2
2022-11-16T08:11:17.566Z,10.7
2022-11-16T08:13:21.234Z,11.6
2022-11-16T08:15:27.857Z,12.5
2022-11-16T08:17:34.911Z,12.4
2022-11-16T08:19:34.954Z,12.1
2022-11-16T08:23:42.144Z,12.3
2022-11-16T08:25:45.709Z,11.4
2022-11-16T08:27:49.308Z,10.8
2022-11-16T08:29:56.069Z,10.5
2022-11-16T08:31:59.518Z,10.5
2022-11-16T08:34:03.104Z,10.3
2022-11-16T08:36:11.071Z,10.3
2022-11-16T08:38:10.246Z,10.2
2022-11-16T08:40:13.820Z,10.3
2022-11-16T08:42:17.404Z,10.2
2022-11-16T08:44:24.551Z,10.4
2022-11-16T08:46:27.822Z,10.5
2022-11-16T08:48:31.846Z,10.9
2022-11-16T08:50:55.500Z,10.9
2022-11-16T08:52:38.559Z,10.7
2022-11-16T08:54:42.102Z,10.6
2022-11-16T08:56:45.682Z,10.5
2022-11-16T08:58:57.844Z,10.5
2022-11-16T09:00:55.894Z,10.4
2022-11-16T09:02:59.462Z,10.5
2022-11-16T09:04:02.754Z,10.6
2022-11-16T09:06:06.370Z,10.7
2022-11-16T09:08:09.915Z,10.7
2022-11-16T09:10:13.533Z,10.6
2022-11-16T09:12:20.177Z,10.8
2022-11-16T09:14:23.717Z,10.7
2022-11-16T09:16:27.303Z,10.7
2022-11-16T09:18:31.108Z,10.9
2022-11-16T09:20:34.387Z,10.9
2022-11-16T09:22:37.982Z,10.9
2022-11-16T09:24:41.559Z,10.8
2022-11-16T09:26:48.176Z,10.7
2022-11-16T09:28:51.766Z,10.6
2022-11-16T09:30:55.329Z,10.7
2022-11-16T09:32:58.879Z,10.8
2022-11-16T09:35:02.470Z,11.1
2022-11-16T09:37:06.022Z,11.2
2022-11-16T09:39:29.412Z,12
2022-11-16T09:41:16.233Z,12.8
2022-11-16T09:43:19.787Z,12.9
2022-11-16T09:45:23.313Z,12.9
2022-11-16T09:47:26.891Z,13
2022-11-16T09:49:30.438Z,13.5
2022-11-16T09:51:34.187Z,13.9
2022-11-16T09:55:44.183Z,12.7
2022-11-16T09:59:51.269Z,13.4
2022-11-16T10:02:15.420Z,12.7
2022-11-16T10:04:18.971Z,12.7
2022-11-16T10:06:22.488Z,13.5
2022-11-16T10:08:29.085Z,13.7
2022-11-16T10:10:32.609Z,13.8
2022-11-16T10:12:36.129Z,13.3
2022-11-16T10:14:39.673Z,12.4
2022-11-16T10:16:43.138Z,12
2022-11-16T10:20:50.462Z,11.6
2022-11-16T10:22:56.767Z,12.7
2022-11-16T10:25:00.295Z,12.4
2022-11-16T10:27:03.791Z,13.1
2022-11-16T10:29:07.271Z,12.5
2022-11-16T10:31:10.774Z,13.2
2022-11-16T10:33:14.317Z,12.3
2022-11-16T10:35:17.829Z,12.5
2022-11-16T10:37:24.518Z,12.1
2022-11-16T10:43:35.286Z,12.8
2022-11-16T10:47:42.042Z,14.2
2022-11-16T10:49:45.576Z,15.1
2022-11-16T10:51:52.140Z,15.7
2022-11-16T10:53:55.647Z,15.7
2022-11-16T10:56:00.657Z,15.6
2022-11-16T10:57:03.913Z,15.5
2022-11-16T10:59:07.414Z,15.5
2022-11-16T11:01:11.026Z,15.7
2022-11-16T11:03:14.394Z,15.9
2022-11-16T11:05:20.979Z,14.9
2022-11-16T11:07:24.613Z,15.2
2022-11-16T11:11:31.405Z,13.3
2022-11-16T11:13:35.244Z,12.5
2022-11-16T11:17:41.823Z,12
2022-11-16T11:21:51.900Z,11.9
2022-11-16T11:23:55.389Z,11.9
2022-11-16T11:25:58.846Z,11.9
2022-11-16T11:28:02.355Z,13.5
2022-11-16T11:30:05.814Z,15.5
2022-11-16T11:34:15.898Z,13.1
2022-11-16T11:38:22.873Z,13.3
2022-11-16T11:44:33.391Z,12.3
2022-11-16T11:47:18.287Z,12.2
2022-11-16T11:48:43.421Z,12.3
2022-11-16T11:50:46.942Z,12.3
2022-11-16T11:52:50.464Z,12.3
2022-11-16T11:58:00.773Z,12.3
2022-11-16T12:08:21.444Z,12.5
2022-11-16T12:10:24.922Z,12.2
2022-11-16T12:14:31.964Z,13.6
2022-11-16T12:16:38.597Z,14.4
2022-11-16T12:18:42.103Z,14.3
2022-11-16T12:20:45.625Z,13.3
2022-11-16T12:26:56.241Z,13.2
2022-11-16T12:31:06.289Z,12.9
2022-11-16T12:33:09.817Z,13
2022-11-16T12:35:13.338Z,12.9
2022-11-16T12:37:16.880Z,12.7
2022-11-16T12:39:20.420Z,12.7
2022-11-16T12:41:23.916Z,12.6
2022-11-16T12:43:27.467Z,12.6
2022-11-16T12:45:34.081Z,13.3
2022-11-16T12:47:37.593Z,13.5
2022-11-16T12:49:41.087Z,13
2022-11-16T12:50:44.416Z,12.6
2022-11-16T12:52:47.937Z,12.4
2022-11-16T12:59:01.569Z,11.7
2022-11-16T13:05:12.157Z,11.8
2022-11-16T13:07:15.691Z,11.8
2022-11-16T13:11:22.676Z,11.9
2022-11-16T13:13:51.497Z,12
2022-11-16T13:15:32.852Z,12
2022-11-16T13:17:36.392Z,12.1
2022-11-16T13:19:39.926Z,12.1
2022-11-16T13:21:43.455Z,12.2
2022-11-16T13:23:47.019Z,12.2
2022-11-16T13:25:50.572Z,12.2
2022-11-16T13:27:57.180Z,12.2
2022-11-16T13:30:00.723Z,12.3
2022-11-16T13:32:04.243Z,12.2
2022-11-16T13:34:07.781Z,12
2022-11-16T13:36:11.465Z,11.9
2022-11-16T13:38:14.829Z,11.9
2022-11-16T13:40:18.327Z,11.9
2022-11-16T13:42:43.522Z,12.2
2022-11-16T13:46:54.655Z,12.3
2022-11-16T13:48:56.181Z,12.1
2022-11-16T13:50:59.699Z,12
2022-11-16T13:55:09.860Z,11.9
2022-11-16T13:57:13.394Z,12
2022-11-16T13:59:16.942Z,12
2022-11-16T14:01:20.549Z,11.9
2022-11-16T14:03:24.031Z,11.9
2022-11-16T14:07:31.135Z,12.2
2022-11-16T14:09:37.702Z,12.2
2022-11-16T14:11:41.256Z,12.2
2022-11-16T14:13:44.768Z,12.2
2022-11-16T14:15:48.337Z,12.1
2022-11-16T14:17:51.901Z,12
2022-11-16T14:19:55.396Z,11.9
2022-11-16T14:21:58.923Z,11.9
2022-11-16T14:24:05.572Z,11.9
2022-11-16T14:26:09.086Z,11.9
2022-11-16T14:28:12.647Z,11.8
2022-11-16T14:30:16.175Z,11.7
2022-11-16T14:34:23.234Z,11.5
2022-11-16T14:36:26.788Z,11.5
2022-11-16T14:38:33.413Z,11.4
2022-11-16T14:40:36.953Z,11.4
2022-11-16T14:43:01.595Z,11.4
2022-11-16T14:43:44.265Z,11.4
2022-11-16T14:47:50.872Z,11.5
2022-11-16T14:49:54.416Z,11.5
2022-11-16T14:52:01.058Z,11.6
2022-11-16T14:54:04.604Z,11.6
2022-11-16T14:56:08.184Z,11.7
2022-11-16T14:58:11.718Z,11.7
2022-11-16T15:00:15.282Z,11.6
2022-11-16T15:02:18.810Z,11.6
2022-11-16T15:04:22.360Z,11.5
2022-11-16T15:06:28.968Z,11.4
2022-11-16T15:08:32.530Z,11.4
2022-11-16T15:10:36.066Z,11.3
2022-11-16T15:12:39.620Z,11.2
2022-11-16T15:14:43.160Z,11.2
2022-11-16T15:16:46.735Z,11.2
2022-11-16T15:18:50.286Z,11.2
2022-11-16T15:20:56.921Z,11.2
2022-11-16T15:23:00.426Z,11.2
2022-11-16T15:25:04.001Z,11.1
2022-11-16T15:27:15.455Z,10.9
2022-11-16T15:29:11.121Z,10.9
2022-11-16T15:31:14.682Z,10.8
2022-11-16T15:33:18.240Z,10.7
2022-11-16T15:35:24.868Z,10.5
2022-11-16T15:37:28.412Z,10.5
2022-11-16T15:39:31.991Z,10.5
2022-11-16T15:40:35.322Z,10.4
2022-11-16T15:42:38.863Z,10.4
2022-11-16T15:44:42.434Z,10.4
2022-11-16T15:46:45.967Z,10.3
2022-11-16T15:48:52.634Z,10.3
2022-11-16T15:50:58.919Z,10.3
2022-11-16T15:52:59.752Z,10.3
2022-11-16T15:55:03.346Z,10.2
2022-11-16T15:57:06.920Z,10.2
2022-11-16T15:59:10.483Z,10.2
2022-11-16T16:01:14.163Z,10.2
2022-11-16T16:03:20.696Z,10.2
2022-11-16T16:05:24.279Z,10.2
2022-11-16T16:07:27.860Z,10.2
2022-11-16T16:09:31.402Z,10.2
2022-11-16T16:11:35.000Z,10.2
2022-11-16T16:13:38.702Z,10.2
2022-11-16T16:15:42.237Z,10.2
2022-11-16T16:17:48.750Z,10.2
2022-11-16T16:23:59.446Z,10.2
2022-11-16T16:26:02.991Z,10.2
2022-11-16T16:28:07.748Z,10.3
2022-11-16T16:30:10.172Z,10.3
2022-11-16T16:32:17.817Z,10.2
2022-11-16T16:34:20.281Z,10.1
2022-11-16T16:39:30.728Z,9.9
2022-11-16T16:41:34.279Z,9.9
2022-11-16T16:43:38.096Z,9.9
2022-11-16T16:45:44.454Z,10
2022-11-16T16:47:48.030Z,10
2022-11-16T16:49:51.594Z,9.9
2022-11-16T16:51:56.683Z,9.9
2022-11-16T16:54:00.229Z,9.9
2022-11-16T16:56:03.791Z,9.9
2022-11-16T16:58:07.332Z,9.8
2022-11-16T17:02:17.564Z,10
2022-11-16T17:08:28.271Z,9.8
2022-11-16T17:10:31.838Z,9.8
2022-11-16T17:12:35.412Z,9.9
2022-11-16T17:14:42.048Z,9.8
2022-11-16T17:16:45.650Z,9.8
2022-11-16T17:22:56.316Z,9.8
2022-11-16T17:24:59.955Z,9.7
2022-11-16T17:29:10.105Z,9.6
2022-11-16T17:33:17.259Z,9.6
2022-11-16T17:35:58.080Z,9.6
2022-11-16T17:37:44.833Z,9.6
2022-11-16T17:39:48.401Z,9.5
2022-11-16T17:41:55.041Z,9.6
2022-11-16T17:43:58.612Z,9.6
2022-11-16T17:46:02.175Z,9.6
2022-11-16T17:48:05.756Z,9.6
2022-11-16T17:50:09.331Z,9.5
2022-11-16T17:52:12.905Z,9.7
2022-11-16T17:54:16.473Z,9.7
2022-11-16T17:56:23.120Z,9.6
2022-11-16T17:58:26.715Z,9.7
2022-11-16T18:00:30.266Z,9.5
2022-11-16T18:02:33.832Z,9.6
2022-11-16T18:04:37.432Z,9.7
2022-11-16T18:06:41.028Z,9.6
2022-11-16T18:08:44.624Z,9.6
2022-11-16T18:10:51.235Z,9.7
2022-11-16T18:12:54.845Z,9.8
2022-11-16T18:15:26.251Z,9.8
2022-11-16T18:17:02.002Z,9.8
2022-11-16T18:21:09.169Z,9.8
2022-11-16T18:23:12.734Z,9.8
2022-11-16T18:25:19.373Z,9.7
2022-11-16T18:27:22.948Z,9.7
2022-11-16T18:29:26.532Z,9.7
2022-11-16T18:30:29.882Z,9.7
2022-11-16T18:32:33.416Z,9.6
2022-11-16T18:34:37.033Z,9.7
2022-11-16T18:36:40.624Z,9.5
2022-11-16T18:38:47.241Z,9.4
2022-11-16T18:40:50.821Z,9.5
2022-11-16T18:42:54.385Z,9.5
2022-11-16T18:44:57.959Z,9.4
2022-11-16T18:47:01.525Z,9.4
2022-11-16T18:49:05.136Z,9.5
2022-11-16T18:51:08.687Z,9.4
2022-11-16T18:53:15.413Z,9.4
2022-11-16T18:55:18.932Z,9.4
2022-11-16T18:57:22.506Z,9.4
2022-11-16T19:09:47.081Z,9.6
2022-11-16T19:11:50.672Z,9.7
2022-11-16T19:15:57.860Z,9.9
2022-11-16T19:18:20.708Z,9.8
2022-11-16T19:20:05.007Z,9.8
2022-11-16T19:26:18.784Z,9.8
2022-11-16T19:31:29.326Z,10
2022-11-16T19:33:33.247Z,9.9
2022-11-16T19:35:39.520Z,9.9
2022-11-16T19:37:43.141Z,10
2022-11-16T19:41:50.297Z,10
2022-11-16T19:43:53.902Z,10
2022-11-16T19:45:57.502Z,10.1
2022-11-16T19:48:01.069Z,10.1
2022-11-16T19:54:14.872Z,10.1
2022-11-16T20:00:25.566Z,10.2
2022-11-16T20:02:29.130Z,10.2
2022-11-16T20:04:35.801Z,10.1
2022-11-16T20:08:42.965Z,10.1
2022-11-16T20:10:46.500Z,10.1
2022-11-16T20:12:50.090Z,10.2
2022-11-16T20:14:53.698Z,10
2022-11-16T20:16:57.214Z,10.1
2022-11-16T20:19:03.895Z,10.2
2022-11-16T20:21:07.430Z,10.2
2022-11-16T20:23:10.992Z,10.2
2022-11-16T20:30:25.074Z,10.2
2022-11-16T20:34:35.230Z,10.1
2022-11-16T20:36:38.793Z,10.2
2022-11-16T20:38:42.395Z,10.1
2022-11-16T20:40:45.953Z,10.1
2022-11-16T20:42:49.515Z,10.1
2022-11-16T20:44:53.099Z,10.2
2022-11-16T20:46:59.751Z,10.2
2022-11-16T20:51:06.887Z,10.1
2022-11-16T20:53:10.479Z,10.1
2022-11-16T20:57:17.618Z,10.1
2022-11-16T20:59:21.171Z,10.2
2022-11-16T21:03:31.631Z,10.1
2022-11-16T21:05:35.009Z,10.1
2022-11-16T21:07:38.646Z,10
2022-11-16T21:09:42.118Z,10
2022-11-16T21:11:45.713Z,10.1
2022-11-16T21:13:49.270Z,9.9
2022-11-16T21:15:55.937Z,9.9
2022-11-16T21:17:59.530Z,9.9
2022-11-16T21:22:32.162Z,9.9
2022-11-16T21:24:30.901Z,9.8
2022-11-16T21:28:41.123Z,9.9
2022-11-16T21:30:44.697Z,9.8
2022-11-16T21:32:48.266Z,9.9
2022-11-16T21:34:51.860Z,9.9
2022-11-16T21:36:55.417Z,9.9
2022-11-16T21:41:02.557Z,10
2022-11-16T21:43:09.229Z,10.2
2022-11-16T21:45:12.783Z,10.2
2022-11-16T21:47:17.715Z,10.2
2022-11-16T21:49:19.941Z,10.2
2022-11-16T21:51:23.506Z,10.3
2022-11-16T21:53:27.076Z,10.4
2022-11-16T21:55:30.637Z,10.4
2022-11-16T21:57:37.279Z,10.4
2022-11-16T21:59:40.864Z,10.4
2022-11-16T22:01:44.510Z,10.4
2022-11-16T22:03:47.995Z,10.3
2022-11-16T22:05:51.736Z,10.4
2022-11-16T22:07:55.177Z,10.3
2022-11-16T22:09:58.755Z,10.3
2022-11-16T22:12:05.540Z,10.4
2022-11-16T22:14:08.988Z,10.3
2022-11-16T22:16:12.575Z,10.5
2022-11-16T22:19:19.456Z,10.4
2022-11-16T22:25:33.262Z,10.4
2022-11-16T22:33:47.560Z,10.6
2022-11-16T22:35:51.133Z,10.5
2022-11-16T22:37:54.687Z,10.5
2022-11-16T22:46:12.037Z,10.4
2022-11-16T22:50:20.698Z,10.4
2022-11-16T22:52:24.253Z,10.4
2022-11-16T22:54:30.929Z,10.5
2022-11-16T22:56:34.492Z,10.5
2022-11-16T23:00:42.362Z,10.4
2022-11-16T23:06:52.425Z,10.5
2022-11-16T23:08:59.022Z,10.3
2022-11-16T23:13:06.133Z,10.3
2022-11-16T23:14:09.455Z,10.5
2022-11-16T23:16:13.009Z,10.4
2022-11-16T23:18:16.585Z,10.5
2022-11-16T23:20:20.144Z,10.3
2022-11-16T23:22:26.801Z,10.4
2022-11-16T23:24:30.382Z,10.4
2022-11-16T23:26:33.922Z,10.3
2022-11-16T23:28:37.470Z,10.4
2022-11-16T23:30:41.063Z,10.4
2022-11-16T23:32:44.647Z,10.4
2022-11-16T23:34:48.206Z,10.3
2022-11-16T23:36:54.848Z,10.2
2022-11-16T23:43:05.548Z,10.2
2022-11-16T23:45:09.121Z,10.2
2022-11-16T23:47:12.700Z,10.3
2022-11-16T23:51:22.920Z,10.1
2022-11-16T23:53:26.517Z,10.3
2022-11-16T23:55:30.065Z,10.1
2022-11-16T23:57:33.644Z,10.2
2022-11-16T23:59:37.230Z,10
